Time;durP1;ratioP1;P1;durP2;ratioP2;P2;SDS_P1;SDS_P2;PMS_P1;PMS_P2;Temp;Humidity;BMP_temperature;BMP_pressure;BME280_temperature;BME280_humidity;BME280_pressure;Samples;Min_cycle;Max_cycle;Signal;HPM_P1;HPM_P2
2022/10/03 00:01:12;;;;;;;4.57;1.38;;;;;15.50;102363.00;;;;4985561;28;20225;-78
2022/10/03 00:03:50;;;;;;;2.40;1.30;;;;;15.50;102361.00;;;;5006627;28;20595;-78
2022/10/03 00:06:28;;;;;;;1.77;1.20;;;;;15.50;102361.00;;;;4991170;28;21047;-78
2022/10/03 00:09:13;;;;;;;1.90;1.13;;;;;15.50;102365.00;;;;4992214;28;20656;-78
2022/10/03 00:11:57;;;;;;;1.80;1.08;;;;;15.50;102374.00;;;;4986818;28;20224;-78
2022/10/03 00:14:34;;;;;;;2.25;0.88;;;;;15.50;102376.00;;;;4973580;28;20206;-78
2022/10/03 00:17:10;;;;;;;2.50;1.02;;;;;15.40;102377.00;;;;4972357;28;20194;-78
2022/10/03 00:19:44;;;;;;;3.00;0.82;;;;;15.40;102384.00;;;;4988997;28;20201;-78
2022/10/03 00:22:22;;;;;;;3.35;1.20;;;;;15.40;102383.00;;;;4991358;28;20205;-78
2022/10/03 00:25:00;;;;;;;2.67;1.20;;;;;15.40;102388.00;;;;4993207;28;20201;-78
2022/10/03 00:27:33;;;;;;;7.03;1.48;;;;;15.40;102389.00;;;;4991723;28;20679;-78
2022/10/03 00:30:16;;;;;;;2.47;1.02;;;;;15.30;102393.00;;;;4986858;28;20198;-78
2022/10/03 00:33:07;;;;;;;4.15;1.63;;;;;15.30;102391.00;;;;4990988;28;20202;-78
2022/10/03 00:35:54;;;;;;;4.15;1.33;;;;;15.30;102392.00;;;;4990977;28;20325;-78
2022/10/03 00:38:52;;;;;;;2.33;1.10;;;;;15.20;102401.00;;;;4990887;28;20786;-78
2022/10/03 00:41:58;;;;;;;2.15;1.30;;;;;15.20;102401.00;;;;4977426;28;20221;-78
2022/10/03 00:45:04;;;;;;;2.58;0.90;;;;;15.20;102402.00;;;;4943098;28;20209;-78
2022/10/03 00:48:00;;;;;;;1.10;0.77;;;;;15.20;102400.00;;;;4974854;28;20236;-79
2022/10/03 00:50:50;;;;;;;3.05;1.15;;;;;15.20;102401.00;;;;4988131;28;20201;-78
2022/10/03 00:53:37;;;;;;;3.72;1.48;;;;;15.20;102401.00;;;;4990037;28;20209;-78
2022/10/03 00:56:23;;;;;;;2.38;1.40;;;;;15.20;102408.00;;;;4987038;28;20210;-78
2022/10/03 00:59:04;;;;;;;2.92;1.17;;;;;15.20;102406.00;;;;4987046;28;20201;-78
2022/10/03 01:01:38;;;;;;;2.53;1.13;;;;;15.20;102409.00;;;;4989198;28;20209;-78
2022/10/03 01:04:23;;;;;;;2.13;1.05;;;;;15.10;102416.00;;;;4986209;28;20230;-78
2022/10/03 01:07:02;;;;;;;2.22;1.05;;;;;15.10;102415.00;;;;4988291;28;20226;-78
2022/10/03 01:09:46;;;;;;;4.10;1.05;;;;;15.10;102419.00;;;;4988211;28;20202;-78
2022/10/03 01:12:27;;;;;;;2.63;1.25;;;;;15.10;102418.00;;;;4986413;28;20213;-78
2022/10/03 01:15:16;;;;;;;29.17;1.42;;;;;15.00;102429.00;;;;4986118;28;20209;-78
2022/10/03 01:17:55;;;;;;;3.67;1.27;;;;;15.10;102441.00;;;;4986367;28;20198;-78
2022/10/03 01:20:31;;;;;;;3.70;1.20;;;;;15.00;102443.00;;;;4986465;28;20231;-78
2022/10/03 01:23:32;;;;;;;3.53;1.00;;;;;15.00;102436.00;;;;4989384;28;20596;-78
2022/10/03 01:26:11;;;;;;;5.68;1.10;;;;;15.00;102440.00;;;;4988881;28;20221;-79
2022/10/03 01:31:42;;;;;;;2.13;1.13;;;;;15.00;102432.00;;;;4988036;28;20252;-78
2022/10/03 01:34:17;;;;;;;2.88;1.30;;;;;15.00;102428.00;;;;4989223;28;20668;-78
2022/10/03 01:36:59;;;;;;;7.35;0.98;;;;;14.90;102431.00;;;;4987776;28;20194;-78
2022/10/03 01:39:33;;;;;;;3.15;0.70;;;;;15.00;102428.00;;;;4974727;28;20297;-78
2022/10/03 01:42:08;;;;;;;1.88;1.00;;;;;14.90;102429.00;;;;4981321;28;20924;-78
2022/10/03 01:44:51;;;;;;;2.83;0.93;;;;;14.90;102429.00;;;;4987619;28;20189;-78
2022/10/03 01:47:26;;;;;;;3.80;1.17;;;;;14.90;102437.00;;;;4978958;28;20221;-78
2022/10/03 01:49:59;;;;;;;3.35;1.20;;;;;14.90;102438.00;;;;4987870;28;20201;-78
2022/10/03 01:52:39;;;;;;;2.35;1.10;;;;;14.90;102439.00;;;;4984780;28;20221;-78
2022/10/03 01:55:14;;;;;;;2.95;1.08;;;;;14.90;102431.00;;;;4983511;28;20197;-78
2022/10/03 01:57:48;;;;;;;3.13;1.10;;;;;14.90;102443.00;;;;4988279;28;20514;-78
2022/10/03 02:00:20;;;;;;;4.60;1.42;;;;;14.90;102437.00;;;;4987741;28;20256;-78
2022/10/03 02:02:54;;;;;;;2.80;1.17;;;;;14.80;102433.00;;;;4988224;28;20197;-78
2022/10/03 02:05:35;;;;;;;2.80;1.00;;;;;14.80;102433.00;;;;4987896;28;20204;-78
2022/10/03 02:08:10;;;;;;;2.50;1.13;;;;;14.80;102440.00;;;;4986733;28;20738;-78
2022/10/03 02:10:45;;;;;;;3.30;1.25;;;;;14.80;102437.00;;;;4987929;28;20276;-77
2022/10/03 02:13:18;;;;;;;3.00;0.85;;;;;14.80;102432.00;;;;4971076;28;20218;-78
2022/10/03 02:15:56;;;;;;;2.47;1.27;;;;;14.80;102436.00;;;;4988628;28;20193;-78
2022/10/03 02:18:31;;;;;;;2.70;1.35;;;;;14.80;102440.00;;;;4988855;28;20204;-78
2022/10/03 02:21:09;;;;;;;3.80;1.25;;;;;14.70;102437.00;;;;4988824;28;20193;-78
2022/10/03 02:23:44;;;;;;;3.35;1.20;;;;;14.70;102439.00;;;;4988665;28;20210;-78
2022/10/03 02:26:55;;;;;;;1.75;0.80;;;;;14.60;102442.00;;;;4988208;28;20213;-78
2022/10/03 02:29:42;;;;;;;3.13;1.08;;;;;14.70;102436.00;;;;4983895;28;20201;-78
2022/10/03 02:33:00;;;;;;;2.25;0.90;;;;;14.60;102436.00;;;;4988067;28;20667;-78
2022/10/03 02:35:51;;;;;;;1.23;0.60;;;;;14.60;102435.00;;;;4987772;28;20213;-78
2022/10/03 02:38:42;;;;;;;1.10;0.70;;;;;14.60;102436.00;;;;4984485;28;20205;-78
2022/10/03 02:41:24;;;;;;;1.95;1.02;;;;;14.60;102444.00;;;;4985969;28;20906;-78
2022/10/03 02:44:27;;;;;;;5.25;1.10;;;;;14.50;102443.00;;;;4975266;28;20212;-78
2022/10/03 02:47:22;;;;;;;1.30;0.80;;;;;14.50;102447.00;;;;4980584;28;20610;-79
2022/10/03 02:50:33;;;;;;;2.20;0.80;;;;;14.50;102439.00;;;;4986736;28;20206;-78
2022/10/03 02:53:33;;;;;;;3.70;0.90;;;;;14.50;102436.00;;;;4990786;28;20208;-78
2022/10/03 02:56:34;;;;;;;1.65;0.73;;;;;14.50;102442.00;;;;4958763;28;20225;-78
2022/10/03 02:59:44;;;;;;;2.22;0.85;;;;;14.50;102441.00;;;;4963963;28;20216;-78
2022/10/03 03:02:37;;;;;;;3.55;1.00;;;;;14.50;102446.00;;;;4967330;28;20205;-78
2022/10/03 03:05:27;;;;;;;2.97;1.08;;;;;14.40;102438.00;;;;4970336;28;20215;-78
2022/10/03 03:08:44;;;;;;;2.47;0.80;;;;;14.40;102445.00;;;;4972024;28;20240;-78
2022/10/03 03:11:37;;;;;;;3.42;0.90;;;;;14.40;102450.00;;;;4939429;28;20226;-78
2022/10/03 03:14:42;;;;;;;4.05;0.80;;;;;14.40;102451.00;;;;4953325;28;20209;-78
2022/10/03 03:17:23;;;;;;;1.80;0.60;;;;;14.40;102462.00;;;;4972939;28;20206;-78
2022/10/03 03:20:28;;;;;;;3.35;0.80;;;;;14.30;102461.00;;;;4971459;28;20208;-78
2022/10/03 03:23:13;;;;;;;1.73;0.70;;;;;14.40;102459.00;;;;4941344;28;20194;-78
2022/10/03 03:26:04;;;;;;;2.17;0.82;;;;;14.40;102464.00;;;;4971861;28;20213;-77
2022/10/03 03:28:41;;;;;;;4.05;0.90;;;;;14.40;102465.00;;;;4974522;28;20213;-78
2022/10/03 03:31:12;;;;;;;4.13;0.70;;;;;14.40;102463.00;;;;4970443;28;20205;-78
2022/10/03 03:33:51;;;;;;;2.83;0.75;;;;;14.40;102459.00;;;;4973746;28;20218;-78
2022/10/03 03:36:29;;;;;;;5.80;1.30;;;;;14.40;102459.00;;;;4976139;28;20202;-78
2022/10/03 03:39:05;;;;;;;6.97;0.90;;;;;14.40;102455.00;;;;4977062;28;20220;-78
2022/10/03 03:41:46;;;;;;;3.47;0.90;;;;;14.40;102455.00;;;;4975431;28;20197;-78
2022/10/03 03:44:37;;;;;;;2.38;1.00;;;;;14.30;102459.00;;;;4975837;28;20212;-78
2022/10/03 03:47:21;;;;;;;1.63;0.80;;;;;14.30;102464.00;;;;4975784;28;20364;-78
2022/10/03 03:50:13;;;;;;;4.38;1.02;;;;;14.30;102470.00;;;;4977105;28;20667;-77
2022/10/03 03:53:10;;;;;;;2.90;1.00;;;;;14.20;102460.00;;;;4980673;28;20218;-78
2022/10/03 03:56:05;;;;;;;1.17;0.70;;;;;14.30;102466.00;;;;4975059;28;20209;-78
2022/10/03 03:58:39;;;;;;;2.15;0.70;;;;;14.30;102461.00;;;;4975859;28;20703;-78
2022/10/03 04:01:30;;;;;;;3.20;0.73;;;;;14.20;102453.00;;;;4977081;28;20237;-78
2022/10/03 04:04:08;;;;;;;2.05;0.63;;;;;14.30;102460.00;;;;4975901;28;20212;-78
2022/10/03 04:06:50;;;;;;;1.80;0.75;;;;;14.20;102466.00;;;;4975598;28;20221;-78
2022/10/03 04:09:48;;;;;;;1.58;0.75;;;;;14.20;102456.00;;;;4977839;28;20719;-78
2022/10/03 04:12:28;;;;;;;2.28;0.63;;;;;14.20;102455.00;;;;4976035;28;20214;-78
2022/10/03 04:15:23;;;;;;;4.38;0.88;;;;;14.20;102455.00;;;;4975856;28;20207;-77
2022/10/03 04:21:04;;;;;;;3.90;0.90;;;;;14.10;102469.00;;;;4980733;28;20232;-78
2022/10/03 04:23:57;;;;;;;1.50;0.80;;;;;14.10;102467.00;;;;4976113;28;20209;-78
2022/10/03 04:26:41;;;;;;;2.38;0.70;;;;;14.10;102466.00;;;;4973682;28;20201;-78
2022/10/03 04:29:46;;;;;;;1.48;0.55;;;;;14.00;102475.00;;;;4978482;28;20216;-78
2022/10/03 04:32:34;;;;;;;1.65;0.80;;;;;14.10;102479.00;;;;4969794;28;20213;-78
2022/10/03 04:35:22;;;;;;;1.08;0.73;;;;;14.10;102479.00;;;;4976846;28;20198;-78
2022/10/03 04:37:57;;;;;;;3.45;0.80;;;;;14.10;102481.00;;;;4978792;28;20206;-78
2022/10/03 04:40:38;;;;;;;1.40;0.60;;;;;14.10;102482.00;;;;4974912;28;20197;-78
2022/10/03 04:43:15;;;;;;;3.78;1.05;;;;;14.10;102491.00;;;;4976133;28;20197;-78
2022/10/03 04:46:00;;;;;;;1.52;0.70;;;;;14.00;102484.00;;;;4976755;28;20209;-78
2022/10/03 04:48:36;;;;;;;4.22;0.63;;;;;14.10;102490.00;;;;4977807;28;20217;-78
2022/10/03 04:51:12;;;;;;;0.93;0.57;;;;;14.00;102488.00;;;;4988913;28;20297;-78
2022/10/03 04:53:52;;;;;;;2.05;0.75;;;;;14.00;102489.00;;;;4992484;28;20237;-78
2022/10/03 04:56:38;;;;;;;1.83;0.70;;;;;14.00;102483.00;;;;4983712;28;20280;-78
2022/10/03 04:59:26;;;;;;;3.47;0.93;;;;;14.00;102484.00;;;;4988502;28;20663;-79
2022/10/03 05:02:01;;;;;;;2.28;0.82;;;;;14.00;102487.00;;;;4985806;28;20201;-78
2022/10/03 05:04:36;;;;;;;2.00;1.13;;;;;14.00;102492.00;;;;4987481;28;20209;-78
2022/10/03 05:07:12;;;;;;;1.65;0.95;;;;;14.00;102488.00;;;;4989363;28;20231;-79
2022/10/03 05:09:48;;;;;;;1.50;0.70;;;;;14.00;102489.00;;;;4990947;28;20209;-78
2022/10/03 05:12:26;;;;;;;2.20;0.95;;;;;14.00;102482.00;;;;4988264;28;20220;-77
2022/10/03 05:15:11;;;;;;;2.85;0.70;;;;;13.90;102493.00;;;;4989657;28;20288;-78
2022/10/03 05:17:48;;;;;;;1.83;0.90;;;;;13.90;102495.00;;;;4987308;28;20204;-78
2022/10/03 05:20:42;;;;;;;4.03;1.40;;;;;13.90;102491.00;;;;4986288;28;20221;-77
2022/10/03 05:23:24;;;;;;;3.55;0.85;;;;;13.90;102499.00;;;;4985100;28;20225;-79
2022/10/03 05:25:58;;;;;;;3.70;1.08;;;;;13.90;102498.00;;;;4988336;28;20201;-79
2022/10/03 05:28:37;;;;;;;2.20;1.15;;;;;13.90;102500.00;;;;4988064;28;20239;-80
2022/10/03 05:31:17;;;;;;;2.90;1.00;;;;;13.90;102495.00;;;;4999074;28;20201;-79
2022/10/03 05:33:51;;;;;;;2.60;0.93;;;;;13.90;102498.00;;;;4989426;28;20205;-79
2022/10/03 05:36:33;;;;;;;1.20;0.80;;;;;13.80;102508.00;;;;4985354;28;20770;-78
2022/10/03 05:39:33;;;;;;;2.17;0.68;;;;;13.80;102507.00;;;;4988229;28;20667;-80
2022/10/03 05:42:14;;;;;;;4.10;0.77;;;;;13.80;102507.00;;;;4986942;28;20193;-78
2022/10/03 05:44:45;;;;;;;4.28;1.00;;;;;13.90;102498.00;;;;4989124;28;20225;-79
2022/10/03 05:47:45;;;;;;;2.00;0.88;;;;;13.80;102504.00;;;;4989094;28;20233;-78
2022/10/03 05:50:56;;;;;;;4.43;1.02;;;;;13.70;102511.00;;;;4989112;28;20213;-79
2022/10/03 05:53:48;;;;;;;2.80;0.77;;;;;13.80;102509.00;;;;4966957;28;20198;-80
2022/10/03 05:56:27;;;;;;;2.20;0.77;;;;;13.80;102507.00;;;;4977666;28;20201;-81
2022/10/03 05:59:36;;;;;;;1.15;0.70;;;;;13.70;102510.00;;;;4991451;28;20754;-78
2022/10/03 06:02:44;;;;;;;3.00;1.20;;;;;13.70;102516.00;;;;4986526;28;20228;-78
2022/10/03 06:05:30;;;;;;;2.20;1.40;;;;;13.70;102516.00;;;;4974098;28;20197;-79
2022/10/03 06:08:18;;;;;;;2.22;1.88;;;;;13.80;102519.00;;;;4988552;28;20221;-79
2022/10/03 06:10:56;;;;;;;7.38;1.90;;;;;13.80;102518.00;;;;4989393;28;20213;-79
2022/10/03 06:13:40;;;;;;;2.03;1.75;;;;;13.80;102518.00;;;;4989176;28;20193;-78
2022/10/03 06:16:21;;;;;;;6.85;1.90;;;;;13.80;102524.00;;;;4988401;28;20680;-79
2022/10/03 06:19:15;;;;;;;3.17;1.65;;;;;13.80;102520.00;;;;4988941;28;20208;-79
2022/10/03 06:22:24;;;;;;;4.63;1.63;;;;;13.80;102524.00;;;;4988934;28;20200;-78
2022/10/03 06:25:37;;;;;;;4.00;1.92;;;;;13.90;102524.00;;;;4989303;28;20205;-78
2022/10/03 06:28:44;;;;;;;6.22;2.30;;;;;13.90;102529.00;;;;4985967;28;20228;-79
2022/10/03 06:31:53;;;;;;;5.60;3.10;;;;;13.90;102531.00;;;;4985113;28;20198;-79
2022/10/03 06:34:50;;;;;;;3.55;2.33;;;;;14.00;102535.00;;;;4971076;28;20197;-79
2022/10/03 06:38:05;;;;;;;4.78;2.80;;;;;14.00;102531.00;;;;4987409;28;20260;-78
2022/10/03 06:41:06;;;;;;;3.90;2.92;;;;;14.10;102530.00;;;;4977124;28;20570;-78
2022/10/03 06:44:01;;;;;;;5.72;2.35;;;;;14.10;102526.00;;;;4983048;28;20205;-78
2022/10/03 06:47:16;;;;;;;6.82;2.45;;;;;14.20;102526.00;;;;4988802;28;20550;-78
2022/10/03 06:50:18;;;;;;;3.97;2.38;;;;;14.40;102529.00;;;;4972953;28;20197;-78
2022/10/03 06:53:25;;;;;;;5.03;2.88;;;;;14.40;102524.00;;;;4988608;28;20683;-79
2022/10/03 06:56:39;;;;;;;4.10;3.13;;;;;14.60;102526.00;;;;4963559;28;20205;-78
2022/10/03 06:59:44;;;;;;;5.38;2.58;;;;;14.70;102535.00;;;;4992833;28;20336;-78
2022/10/03 07:02:40;;;;;;;3.55;2.30;;;;;14.80;102534.00;;;;4994775;28;20286;-79
2022/10/03 07:05:54;;;;;;;20.70;16.77;;;;;14.90;102541.00;;;;4963093;28;20198;-80
2022/10/03 07:09:04;;;;;;;12.80;9.88;;;;;15.00;102540.00;;;;4983652;28;20225;-80
2022/10/03 07:11:55;;;;;;;10.65;8.60;;;;;15.20;102543.00;;;;4967559;28;20222;-79
2022/10/03 07:15:00;;;;;;;10.90;6.50;;;;;15.20;102537.00;;;;4980590;28;20201;-80
2022/10/03 07:17:56;;;;;;;6.90;3.90;;;;;15.30;102541.00;;;;4988953;28;20214;-80
2022/10/03 07:20:50;;;;;;;7.10;5.63;;;;;15.40;102544.00;;;;4972814;28;20210;-80
2022/10/03 07:24:01;;;;;;;5.53;3.05;;;;;15.50;102564.00;;;;4972685;28;20213;-79
2022/10/03 07:27:07;;;;;;;19.25;15.50;;;;;15.60;102561.00;;;;4981972;28;20237;-80
2022/10/03 07:30:05;;;;;;;17.00;11.57;;;;;15.70;102558.00;;;;4930688;29;20283;-80
2022/10/03 07:32:48;;;;;;;7.30;5.25;;;;;15.80;102555.00;;;;4991107;28;20190;-80
2022/10/03 07:38:59;;;;;;;5.68;2.42;;;;;15.90;102547.00;;;;4997094;28;20573;-80
2022/10/03 07:41:44;;;;;;;3.13;2.00;;;;;16.00;102549.00;;;;5000107;28;20213;-80
2022/10/03 07:44:59;;;;;;;3.08;1.70;;;;;16.10;102564.00;;;;4990999;28;20201;-80
2022/10/03 07:48:18;;;;;;;2.33;1.38;;;;;16.20;102568.00;;;;4991124;28;20210;-80
2022/10/03 07:51:05;;;;;;;3.58;0.98;;;;;16.40;102572.00;;;;4990151;28;20206;-80
2022/10/03 07:54:08;;;;;;;1.80;1.17;;;;;16.50;102572.00;;;;4985422;28;20204;-80
2022/10/03 07:57:02;;;;;;;2.05;1.15;;;;;16.60;102570.00;;;;4956645;28;20209;-79
2022/10/03 07:59:59;;;;;;;3.15;1.20;;;;;16.70;102574.00;;;;4990915;28;20703;-79
2022/10/03 08:02:44;;;;;;;2.13;0.98;;;;;16.80;102573.00;;;;4976983;28;20209;-80
2022/10/03 08:05:32;;;;;;;1.70;1.05;;;;;16.90;102574.00;;;;4986709;28;20197;-79
2022/10/03 08:08:52;;;;;;;4.78;1.25;;;;;17.00;102575.00;;;;4990711;28;20568;-80
2022/10/03 08:11:51;;;;;;;1.50;1.10;;;;;17.00;102580.00;;;;4990817;28;20229;-80
2022/10/03 08:14:26;;;;;;;1.48;1.10;;;;;17.20;102587.00;;;;4982654;28;20202;-81
2022/10/03 08:17:28;;;;;;;3.78;1.33;;;;;17.20;102591.00;;;;4991977;28;20203;-80
2022/10/03 08:20:21;;;;;;;4.60;1.50;;;;;17.30;102601.00;;;;4976564;28;20208;-80
2022/10/03 08:23:03;;;;;;;1.58;1.00;;;;;17.40;102598.00;;;;4987657;28;20719;-80
2022/10/03 08:25:51;;;;;;;2.60;0.98;;;;;17.40;102593.00;;;;4987684;28;20199;-80
2022/10/03 08:28:40;;;;;;;2.20;1.10;;;;;17.50;102589.00;;;;4991273;28;20421;-80
2022/10/03 08:31:30;;;;;;;1.45;1.10;;;;;17.60;102594.00;;;;4990924;28;20206;-80
2022/10/03 08:34:24;;;;;;;4.72;1.02;;;;;17.70;102593.00;;;;4990576;28;20326;-80
2022/10/03 08:37:14;;;;;;;2.88;1.30;;;;;17.80;102593.00;;;;4969949;28;20193;-81
2022/10/03 08:40:12;;;;;;;2.00;1.13;;;;;17.80;102598.00;;;;4988918;28;20686;-81
2022/10/03 08:43:31;;;;;;;3.50;1.63;;;;;17.90;102605.00;;;;4985970;28;20672;-80
2022/10/03 08:46:09;;;;;;;2.60;1.02;;;;;18.10;102602.00;;;;4972465;28;20236;-80
2022/10/03 08:49:26;;;;;;;1.70;1.38;;;;;18.00;102599.00;;;;4983386;28;20717;-80
2022/10/03 08:52:07;;;;;;;2.78;1.40;;;;;18.20;102600.00;;;;4962632;28;20209;-80
2022/10/03 08:54:50;;;;;;;2.33;1.38;;;;;18.20;102596.00;;;;4990941;28;20205;-80
2022/10/03 08:57:34;;;;;;;4.13;1.30;;;;;18.30;102599.00;;;;4990275;28;20194;-81
2022/10/03 09:00:16;;;;;;;5.72;1.00;;;;;18.30;102601.00;;;;4989197;28;20237;-80
2022/10/03 09:03:16;;;;;;;3.63;1.48;;;;;18.30;102603.00;;;;4990180;28;20194;-81
2022/10/03 09:06:23;;;;;;;3.38;1.13;;;;;18.40;102596.00;;;;4985508;28;20205;-80
2022/10/03 09:09:22;;;;;;;3.13;1.40;;;;;18.50;102610.00;;;;4986464;28;20310;-81
2022/10/03 09:12:23;;;;;;;3.47;1.55;;;;;18.60;102612.00;;;;4989682;28;20214;-81
2022/10/03 09:15:10;;;;;;;5.80;2.30;;;;;18.70;102604.00;;;;4989808;28;20211;-81
2022/10/03 09:18:10;;;;;;;4.80;1.63;;;;;18.70;102601.00;;;;4982734;28;20197;-81
2022/10/03 09:21:21;;;;;;;2.38;1.25;;;;;18.80;102602.00;;;;4986494;28;20198;-81
2022/10/03 09:24:14;;;;;;;4.30;1.30;;;;;18.90;102605.00;;;;4984950;28;20271;-81
2022/10/03 09:27:08;;;;;;;3.80;1.58;;;;;18.90;102607.00;;;;4987900;28;20205;-81
2022/10/03 09:30:05;;;;;;;3.20;1.10;;;;;19.00;102615.00;;;;4988779;28;20234;-81
2022/10/03 09:32:58;;;;;;;3.05;1.30;;;;;19.00;102601.00;;;;4986711;28;20201;-81
2022/10/03 09:35:47;;;;;;;1.20;0.98;;;;;19.10;102604.00;;;;4990018;28;20194;-81
2022/10/03 09:38:48;;;;;;;2.33;1.50;;;;;19.20;102599.00;;;;4984545;28;20201;-82
2022/10/03 09:41:57;;;;;;;3.67;1.30;;;;;19.30;102595.00;;;;4988865;28;20703;-80
2022/10/03 09:44:43;;;;;;;3.75;1.50;;;;;19.40;102592.00;;;;4989538;28;20193;-81
2022/10/03 09:47:47;;;;;;;7.53;3.80;;;;;19.40;102590.00;;;;4985394;28;20197;-81
2022/10/03 09:51:01;;;;;;;11.15;6.97;;;;;19.50;102592.00;;;;4980658;28;20198;-81
2022/10/03 09:54:01;;;;;;;8.90;4.63;;;;;19.60;102595.00;;;;4984194;28;20190;-81
2022/10/03 09:57:01;;;;;;;5.50;2.35;;;;;19.70;102591.00;;;;4962912;28;20213;-80
2022/10/03 09:59:50;;;;;;;5.68;2.28;;;;;19.80;102589.00;;;;4968986;28;20249;-81
2022/10/03 10:02:47;;;;;;;5.85;1.95;;;;;19.90;102598.00;;;;4966791;28;20687;-80
2022/10/03 10:05:57;;;;;;;2.33;1.25;;;;;20.00;102595.00;;;;4968153;28;20194;-80
2022/10/03 10:09:16;;;;;;;3.80;2.15;;;;;20.10;102593.00;;;;4968685;28;20233;-80
2022/10/03 10:12:09;;;;;;;2.20;1.02;;;;;20.20;102591.00;;;;4967375;28;20229;-80
2022/10/03 10:15:21;;;;;;;5.63;1.83;;;;;20.30;102586.00;;;;4967133;28;20202;-80
2022/10/03 10:18:35;;;;;;;10.25;1.60;;;;;20.40;102590.00;;;;4935497;28;20206;-80
2022/10/03 10:21:33;;;;;;;2.83;1.20;;;;;20.50;102582.00;;;;4994813;28;20204;-80
2022/10/03 10:24:46;;;;;;;1.23;0.60;;;;;20.60;102588.00;;;;5008098;28;20200;-80
2022/10/03 10:27:49;;;;;;;4.97;0.88;;;;;20.70;102584.00;;;;4975426;28;20220;-80
2022/10/03 10:30:23;;;;;;;2.78;0.93;;;;;20.90;102586.00;;;;4988253;28;20228;-80
2022/10/03 10:33:39;;;;;;;3.00;0.80;;;;;21.00;102580.00;;;;4989639;28;20201;-80
2022/10/03 10:36:57;;;;;;;3.28;1.13;;;;;21.10;102589.00;;;;4991631;28;20201;-80
2022/10/03 10:40:15;;;;;;;2.22;0.98;;;;;21.20;102594.00;;;;5008571;28;20204;-80
2022/10/03 10:43:29;;;;;;;2.10;0.73;;;;;21.30;102591.00;;;;4988414;28;20287;-80
2022/10/03 10:46:40;;;;;;;2.60;0.77;;;;;21.40;102586.00;;;;4988788;28;20209;-80
2022/10/03 10:49:45;;;;;;;1.90;0.80;;;;;21.50;102600.00;;;;4988453;28;20227;-80
2022/10/03 10:52:45;;;;;;;1.48;0.47;;;;;21.60;102581.00;;;;4988724;28;20667;-80
2022/10/03 10:55:54;;;;;;;0.95;0.50;;;;;21.70;102589.00;;;;4988865;28;20202;-80
2022/10/03 10:59:14;;;;;;;3.08;0.70;;;;;21.70;102586.00;;;;4985983;28;20202;-80
2022/10/03 11:02:21;;;;;;;3.22;0.73;;;;;21.80;102588.00;;;;4969309;28;20736;-80
2022/10/03 11:05:52;;;;;;;3.70;1.20;;;;;21.80;102588.00;;;;4969038;28;20206;-79
2022/10/03 11:09:08;;;;;;;2.95;1.20;;;;;21.80;102588.00;;;;4969494;28;20213;-80
2022/10/03 11:12:05;;;;;;;1.48;0.50;;;;;21.90;102590.00;;;;4976224;28;20220;-80
2022/10/03 11:15:09;;;;;;;2.15;0.70;;;;;21.90;102590.00;;;;4975411;28;20222;-79
2022/10/03 11:18:33;;;;;;;5.03;0.80;;;;;22.00;102587.00;;;;4982506;28;20205;-80
2022/10/03 11:21:34;;;;;;;1.58;0.57;;;;;22.00;102591.00;;;;4987283;28;20210;-80
2022/10/03 11:24:32;;;;;;;1.27;0.50;;;;;22.10;102584.00;;;;4987846;28;20201;-80
2022/10/03 11:27:22;;;;;;;3.83;0.50;;;;;22.20;102581.00;;;;4980167;28;20194;-79
2022/10/03 11:30:41;;;;;;;2.42;0.30;;;;;22.20;102579.00;;;;4988104;28;20241;-80
2022/10/03 11:33:46;;;;;;;2.25;0.63;;;;;22.30;102583.00;;;;4969506;28;20214;-78
2022/10/03 11:36:38;;;;;;;4.20;0.70;;;;;22.40;102578.00;;;;4965573;28;20544;-80
2022/10/03 11:39:07;;;;;;;3.38;0.90;;;;;22.50;102574.00;;;;5008100;28;20779;-80
2022/10/03 11:41:46;;;;;;;3.15;0.90;;;;;22.60;102574.00;;;;4996246;28;20217;-80
2022/10/03 11:44:24;;;;;;;2.53;0.77;;;;;22.60;102580.00;;;;4987903;28;20204;-80
2022/10/03 11:47:27;;;;;;;1.50;0.63;;;;;22.70;102585.00;;;;4988067;28;20204;-82
2022/10/03 11:50:28;;;;;;;3.15;0.55;;;;;22.80;102575.00;;;;4980436;28;20237;-81
2022/10/03 11:53:22;;;;;;;2.60;0.82;;;;;23.00;102576.00;;;;4969300;28;20603;-82
2022/10/03 11:55:58;;;;;;;3.80;1.60;;;;;23.20;102576.00;;;;4990140;28;20202;-81
2022/10/03 11:58:41;;;;;;;6.68;1.10;;;;;23.20;102573.00;;;;4991562;28;20217;-83
2022/10/03 12:01:27;;;;;;;2.05;0.70;;;;;23.30;102577.00;;;;4988145;28;20225;-82
2022/10/03 12:04:03;;;;;;;3.30;0.65;;;;;23.40;102569.00;;;;4990804;28;20202;-81
2022/10/03 12:09:56;;;;;;;3.13;0.63;;;;;23.60;102563.00;;;;4989341;28;20702;-82
2022/10/03 12:12:36;;;;;;;4.10;0.73;;;;;23.70;102566.00;;;;4995460;28;20212;-81
2022/10/03 12:15:20;;;;;;;2.83;0.40;;;;;23.80;102562.00;;;;4988766;28;20707;-82
2022/10/03 12:17:55;;;;;;;1.10;0.45;;;;;23.90;102560.00;;;;4970625;28;20210;-82
2022/10/03 12:20:32;;;;;;;2.03;0.80;;;;;24.00;102557.00;;;;4989941;28;20201;-82
2022/10/03 12:23:07;;;;;;;3.95;0.77;;;;;24.00;102555.00;;;;4991547;28;20726;-82
2022/10/03 12:25:39;;;;;;;4.88;0.85;;;;;24.10;102553.00;;;;4987964;28;20186;-81
2022/10/03 12:28:16;;;;;;;3.75;0.68;;;;;24.10;102560.00;;;;4994196;28;20203;-82
2022/10/03 12:30:50;;;;;;;3.30;1.02;;;;;24.20;102560.00;;;;4998027;28;20317;-82
2022/10/03 12:33:31;;;;;;;3.60;0.82;;;;;24.10;102553.00;;;;4993446;28;20197;-83
2022/10/03 12:36:09;;;;;;;2.63;0.50;;;;;24.10;102554.00;;;;4999253;28;20698;-83
2022/10/03 12:38:55;;;;;;;6.88;0.73;;;;;24.10;102552.00;;;;4991184;28;20208;-83
2022/10/03 12:41:55;;;;;;;2.75;0.80;;;;;24.10;102560.00;;;;4992456;28;20205;-83
2022/10/03 12:44:37;;;;;;;3.10;0.63;;;;;24.20;102556.00;;;;4990513;28;20201;-81
2022/10/03 12:47:21;;;;;;;4.22;0.60;;;;;24.20;102550.00;;;;4991526;28;20201;-82
2022/10/03 12:49:56;;;;;;;2.67;0.60;;;;;24.30;102547.00;;;;4992700;28;20229;-81
2022/10/03 12:52:30;;;;;;;2.35;1.15;;;;;24.30;102543.00;;;;4987586;28;20197;-81
2022/10/03 12:55:14;;;;;;;3.72;0.80;;;;;24.40;102544.00;;;;4988586;28;20201;-82
2022/10/03 12:57:53;;;;;;;1.63;0.50;;;;;24.40;102536.00;;;;4986272;28;20210;-82
2022/10/03 13:00:26;;;;;;;3.22;0.65;;;;;24.50;102541.00;;;;4988066;28;20288;-82
2022/10/03 13:03:28;;;;;;;1.83;0.60;;;;;24.60;102537.00;;;;4989667;28;20301;-81
2022/10/03 13:06:39;;;;;;;10.40;1.08;;;;;24.60;102547.00;;;;4974588;28;20644;-81
2022/10/03 13:09:24;;;;;;;3.42;0.73;;;;;24.60;102540.00;;;;4929342;29;20238;-82
2022/10/03 13:12:01;;;;;;;3.53;0.68;;;;;24.70;102535.00;;;;4928521;29;20723;-81
2022/10/03 13:14:42;;;;;;;3.65;0.82;;;;;24.60;102531.00;;;;4965840;28;20321;-81
2022/10/03 13:17:19;;;;;;;3.65;1.25;;;;;24.60;102531.00;;;;4989150;28;20198;-80
2022/10/03 13:19:54;;;;;;;5.07;0.82;;;;;24.90;102533.00;;;;4989738;28;20201;-80
2022/10/03 13:22:35;;;;;;;3.20;0.77;;;;;25.10;102535.00;;;;4989062;28;20560;-81
2022/10/03 13:25:11;;;;;;;3.97;1.02;;;;;25.40;102536.00;;;;4988997;28;20221;-82
2022/10/03 13:27:44;;;;;;;3.83;1.05;;;;;25.50;102542.00;;;;4977350;28;20245;-82
2022/10/03 13:30:20;;;;;;;4.22;0.57;;;;;25.50;102547.00;;;;4989463;28;20228;-82
2022/10/03 13:32:52;;;;;;;3.65;0.70;;;;;25.50;102549.00;;;;4983903;28;20233;-81
2022/10/03 13:38:58;;;;;;;3.17;0.90;;;;;25.30;102539.00;;;;4989797;28;20773;-82
2022/10/03 13:41:41;;;;;;;3.83;0.88;;;;;25.20;102536.00;;;;4989573;28;20319;-81
2022/10/03 13:44:16;;;;;;;4.22;0.75;;;;;25.10;102544.00;;;;4989941;28;20259;-83
2022/10/03 13:46:52;;;;;;;1.65;0.50;;;;;25.10;102532.00;;;;4989197;28;20202;-81
2022/10/03 13:49:30;;;;;;;4.30;0.60;;;;;25.10;102536.00;;;;4979518;28;20312;-80
2022/10/03 13:52:01;;;;;;;3.55;0.75;;;;;25.00;102524.00;;;;4991590;28;20617;-81
2022/10/03 13:55:01;;;;;;;3.20;0.63;;;;;24.80;102522.00;;;;4989813;28;20725;-81
2022/10/03 13:57:35;;;;;;;4.15;1.00;;;;;24.80;102528.00;;;;4988622;28;20217;-81
2022/10/03 14:00:10;;;;;;;3.70;0.70;;;;;24.70;102535.00;;;;4988993;28;20229;-81
2022/10/03 14:02:47;;;;;;;2.72;0.70;;;;;24.60;102531.00;;;;4989611;28;20201;-81
2022/10/03 14:05:40;;;;;;;3.53;0.70;;;;;24.40;102531.00;;;;4986274;28;20197;-81
2022/10/03 14:08:15;;;;;;;4.47;0.60;;;;;24.40;102533.00;;;;4988182;28;20197;-81
2022/10/03 14:11:08;;;;;;;2.75;0.65;;;;;24.20;102521.00;;;;4989227;28;20225;-80
2022/10/03 14:13:51;;;;;;;3.53;0.60;;;;;24.20;102519.00;;;;4988950;28;20202;-81
2022/10/03 14:16:25;;;;;;;1.95;0.60;;;;;24.20;102517.00;;;;4989040;28;20206;-81